sensor_id;sensor_type;location;lat;lon;timestamp;pressure;altitude;pressure_sealevel;temperature;humidity
72116;BME280;59991;52.140;5.428;2023-04-07T00:00:29;101475.66;;;8.06;100.00
72116;BME280;59991;52.140;5.428;2023-04-07T00:01:00;101477.25;;;8.07;100.00
72116;BME280;59991;52.140;5.428;2023-04-07T00:01:32;101480.75;;;8.08;100.00
72116;BME280;59991;52.140;5.428;2023-04-07T00:02:03;101479.94;;;8.07;100.00
72116;BME280;59991;52.140;5.428;2023-04-07T00:02:35;101483.81;;;8.06;100.00
72116;BME280;59991;52.140;5.428;2023-04-07T00:03:07;101485.38;;;8.07;100.00
72116;BME280;59991;52.140;5.428;2023-04-07T00:03:39;101486.50;;;8.06;100.00
72116;BME280;59991;52.140;5.428;2023-04-07T00:04:11;101482.22;;;8.05;100.00
72116;BME280;59991;52.140;5.428;2023-04-07T00:04:43;101489.22;;;8.06;100.00
72116;BME280;59991;52.140;5.428;2023-04-07T00:05:15;101487.66;;;8.05;100.00
72116;BME280;59991;52.140;5.428;2023-04-07T00:05:46;101483.81;;;8.06;100.00
72116;BME280;59991;52.140;5.428;2023-04-07T00:06:18;101499.31;;;8.06;100.00
72116;BME280;59991;52.140;5.428;2023-04-07T00:06:49;101484.13;;;8.05;100.00
72116;BME280;59991;52.140;5.428;2023-04-07T00:07:21;101484.94;;;8.05;100.00
72116;BME280;59991;52.140;5.428;2023-04-07T00:07:52;101486.84;;;8.05;100.00
72116;BME280;59991;52.140;5.428;2023-04-07T00:08:27;101486.06;;;8.04;100.00
72116;BME280;59991;52.140;5.428;2023-04-07T00:08:59;101489.56;;;8.05;100.00
72116;BME280;59991;52.140;5.428;2023-04-07T00:09:30;101488.00;;;8.04;100.00
72116;BME280;59991;52.140;5.428;2023-04-07T00:10:01;101484.94;;;8.05;100.00
72116;BME280;59991;52.140;5.428;2023-04-07T00:10:33;101484.94;;;8.05;100.00
72116;BME280;59991;52.140;5.428;2023-04-07T00:11:05;101488.78;;;8.04;100.00
72116;BME280;59991;52.140;5.428;2023-04-07T00:11:37;101484.47;;;8.03;100.00
72116;BME280;59991;52.140;5.428;2023-04-07T00:12:08;101488.78;;;8.04;100.00
72116;BME280;59991;52.140;5.428;2023-04-07T00:12:40;101487.66;;;8.05;100.00
72116;BME280;59991;52.140;5.428;2023-04-07T00:13:12;101487.66;;;8.05;100.00
72116;BME280;59991;52.140;5.428;2023-04-07T00:13:43;101484.59;;;8.07;100.00
72116;BME280;59991;52.140;5.428;2023-04-07T00:14:14;101482.22;;;8.05;100.00
72116;BME280;59991;52.140;5.428;2023-04-07T00:14:46;101489.22;;;8.06;100.00
72116;BME280;59991;52.140;5.428;2023-04-07T00:15:17;101483.81;;;8.06;100.00
72116;BME280;59991;52.140;5.428;2023-04-07T00:15:48;101487.66;;;8.05;100.00
72116;BME280;59991;52.140;5.428;2023-04-07T00:16:20;101480.63;;;8.04;100.00
72116;BME280;59991;52.140;5.428;2023-04-07T00:16:51;101479.50;;;8.05;100.00
72116;BME280;59991;52.140;5.428;2023-04-07T00:17:23;101484.47;;;8.03;100.00
72116;BME280;59991;52.140;5.428;2023-04-07T00:17:54;101488.78;;;8.04;100.00
72116;BME280;59991;52.140;5.428;2023-04-07T00:18:26;101487.19;;;8.03;100.00
72116;BME280;59991;52.140;5.428;2023-04-07T00:18:58;101486.41;;;8.03;100.00
72116;BME280;59991;52.140;5.428;2023-04-07T00:19:29;101487.53;;;8.02;100.00
72116;BME280;59991;52.140;5.428;2023-04-07T00:20:00;101485.97;;;8.01;100.00
72116;BME280;59991;52.140;5.428;2023-04-07T00:20:32;101482.91;;;8.02;100.00
72116;BME280;59991;52.140;5.428;2023-04-07T00:21:03;101493.75;;;8.02;100.00
72116;BME280;59991;52.140;5.428;2023-04-07T00:21:35;101479.41;;;8.02;100.00
72116;BME280;59991;52.140;5.428;2023-04-07T00:22:06;101485.16;;;8.00;100.00
72116;BME280;59991;52.140;5.428;2023-04-07T00:22:37;101485.16;;;8.00;100.00
72116;BME280;59991;52.140;5.428;2023-04-07T00:23:09;101483.25;;;8.01;100.00
72116;BME280;59991;52.140;5.428;2023-04-07T00:23:40;101481.31;;;8.01;100.00
72116;BME280;59991;52.140;5.428;2023-04-07T00:24:13;101487.53;;;8.02;100.00
72116;BME280;59991;52.140;5.428;2023-04-07T00:24:57;101491.38;;;8.01;100.00
72116;BME280;59991;52.140;5.428;2023-04-07T00:25:28;101490.59;;;8.00;100.00
72116;BME280;59991;52.140;5.428;2023-04-07T00:26:00;101488.22;;;7.98;100.00
72116;BME280;59991;52.140;5.428;2023-04-07T00:26:31;101489.00;;;7.99;100.00
72116;BME280;59991;52.140;5.428;2023-04-07T00:27:03;101487.44;;;7.98;100.00
72116;BME280;59991;52.140;5.428;2023-04-07T00:27:34;101491.72;;;7.99;100.00
72116;BME280;59991;52.140;5.428;2023-04-07T00:28:06;101491.72;;;7.99;100.00
72116;BME280;59991;52.140;5.428;2023-04-07T00:28:37;101490.16;;;7.98;100.00
72116;BME280;59991;52.140;5.428;2023-04-07T00:29:08;101492.88;;;7.98;100.00
72116;BME280;59991;52.140;5.428;2023-04-07T00:29:40;101495.56;;;7.98;100.00
72116;BME280;59991;52.140;5.428;2023-04-07T00:30:13;101491.28;;;7.97;100.00
72116;BME280;59991;52.140;5.428;2023-04-07T00:30:45;101492.88;;;7.98;100.00
72116;BME280;59991;52.140;5.428;2023-04-07T00:31:17;101494.00;;;7.97;100.00
72116;BME280;59991;52.140;5.428;2023-04-07T00:31:48;101496.72;;;7.97;100.00
72116;BME280;59991;52.140;5.428;2023-04-07T00:32:21;101495.13;;;7.96;100.00
72116;BME280;59991;52.140;5.428;2023-04-07T00:32:52;101489.69;;;7.96;100.00
72116;BME280;59991;52.140;5.428;2023-04-07T00:33:24;101491.28;;;7.97;100.00
72116;BME280;59991;52.140;5.428;2023-04-07T00:33:56;101497.50;;;7.97;100.00
72116;BME280;59991;52.140;5.428;2023-04-07T00:34:28;101498.28;;;7.98;100.00
72116;BME280;59991;52.140;5.428;2023-04-07T00:34:59;101496.72;;;7.97;100.00
72116;BME280;59991;52.140;5.428;2023-04-07T00:35:32;101492.41;;;7.96;100.00
72116;BME280;59991;52.140;5.428;2023-04-07T00:36:04;101497.50;;;7.97;100.00
72116;BME280;59991;52.140;5.428;2023-04-07T00:36:36;101486.97;;;7.96;100.00
72116;BME280;59991;52.140;5.428;2023-04-07T00:37:07;101498.63;;;7.96;100.00
72116;BME280;59991;52.140;5.428;2023-04-07T00:37:38;101492.41;;;7.96;100.00
72116;BME280;59991;52.140;5.428;2023-04-07T00:38:10;101498.28;;;7.98;100.00
72116;BME280;59991;52.140;5.428;2023-04-07T00:38:42;101491.28;;;7.97;100.00
72116;BME280;59991;52.140;5.428;2023-04-07T00:39:13;101492.06;;;7.97;100.00
72116;BME280;59991;52.140;5.428;2023-04-07T00:39:45;101499.44;;;7.97;100.00
72116;BME280;59991;52.140;5.428;2023-04-07T00:40:17;101491.28;;;7.97;100.00
72116;BME280;59991;52.140;5.428;2023-04-07T00:40:48;101498.28;;;7.98;100.00
72116;BME280;59991;52.140;5.428;2023-04-07T00:41:19;101491.28;;;7.97;100.00
72116;BME280;59991;52.140;5.428;2023-04-07T00:41:51;101495.13;;;7.96;100.00
72116;BME280;59991;52.140;5.428;2023-04-07T00:42:22;101492.75;;;7.94;100.00
72116;BME280;59991;52.140;5.428;2023-04-07T00:42:53;101494.34;;;7.95;100.00
72116;BME280;59991;52.140;5.428;2023-04-07T00:43:26;101493.53;;;7.95;100.00
72116;BME280;59991;52.140;5.428;2023-04-07T00:43:57;101491.16;;;7.93;100.00
72116;BME280;59991;52.140;5.428;2023-04-07T00:44:29;101486.06;;;7.92;100.00
72116;BME280;59991;52.140;5.428;2023-04-07T00:45:00;101494.22;;;7.92;100.00
72116;BME280;59991;52.140;5.428;2023-04-07T00:45:32;101492.63;;;7.91;100.00
72116;BME280;59991;52.140;5.428;2023-04-07T00:46:03;101491.50;;;7.92;100.00
72116;BME280;59991;52.140;5.428;2023-04-07T00:46:35;101496.16;;;7.91;100.00
72116;BME280;59991;52.140;5.428;2023-04-07T00:47:06;101492.63;;;7.91;100.00
72116;BME280;59991;52.140;5.428;2023-04-07T00:47:38;101492.63;;;7.91;100.00
72116;BME280;59991;52.140;5.428;2023-04-07T00:48:09;101491.06;;;7.90;100.00
72116;BME280;59991;52.140;5.428;2023-04-07T00:48:40;101491.06;;;7.90;100.00
72116;BME280;59991;52.140;5.428;2023-04-07T00:49:12;101490.72;;;7.91;100.00
72116;BME280;59991;52.140;5.428;2023-04-07T00:49:43;101482.56;;;7.91;100.00
72116;BME280;59991;52.140;5.428;2023-04-07T00:50:15;101489.59;;;7.92;100.00
72116;BME280;59991;52.140;5.428;2023-04-07T00:50:46;101485.28;;;7.91;100.00
72116;BME280;59991;52.140;5.428;2023-04-07T00:51:20;101494.56;;;7.90;100.00
72116;BME280;59991;52.140;5.428;2023-04-07T00:51:54;101485.28;;;7.91;100.00
72116;BME280;59991;52.140;5.428;2023-04-07T00:52:26;101495.69;;;7.89;100.00
72116;BME280;59991;52.140;5.428;2023-04-07T00:52:59;101490.25;;;7.89;100.00
72116;BME280;59991;52.140;5.428;2023-04-07T00:53:32;101488.34;;;7.90;100.00
72116;BME280;59991;52.140;5.428;2023-04-07T00:54:05;101489.47;;;7.89;100.00
72116;BME280;59991;52.140;5.428;2023-04-07T00:54:37;101494.56;;;7.90;100.00
72116;BME280;59991;52.140;5.428;2023-04-07T00:55:09;101491.06;;;7.90;100.00
72116;BME280;59991;52.140;5.428;2023-04-07T00:55:40;101486.00;;;7.88;100.00
72116;BME280;59991;52.140;5.428;2023-04-07T00:56:12;101493.34;;;7.88;100.00
72116;BME280;59991;52.140;5.428;2023-04-07T00:56:43;101493.34;;;7.88;100.00
72116;BME280;59991;52.140;5.428;2023-04-07T00:57:14;101496.06;;;7.88;100.00
72116;BME280;59991;52.140;5.428;2023-04-07T00:57:46;101494.16;;;7.88;100.00
72116;BME280;59991;52.140;5.428;2023-04-07T00:58:18;101500.34;;;7.89;100.00
72116;BME280;59991;52.140;5.428;2023-04-07T00:58:49;101497.63;;;7.89;100.00
72116;BME280;59991;52.140;5.428;2023-04-07T00:59:21;101499.56;;;7.88;100.00
72116;BME280;59991;52.140;5.428;2023-04-07T00:59:52;101500.34;;;7.89;100.00
72116;BME280;59991;52.140;5.428;2023-04-07T01:00:26;101494.91;;;7.89;100.00
72116;BME280;59991;52.140;5.428;2023-04-07T01:01:06;101502.72;;;7.90;100.00
72116;BME280;59991;52.140;5.428;2023-04-07T01:03:00;101492.97;;;7.89;100.00
72116;BME280;59991;52.140;5.428;2023-04-07T01:03:53;101500.78;;;7.91;100.00
72116;BME280;59991;52.140;5.428;2023-04-07T01:04:34;101498.06;;;7.91;100.00
72116;BME280;59991;52.140;5.428;2023-04-07T01:05:16;101497.28;;;7.90;100.00
72116;BME280;59991;52.140;5.428;2023-04-07T01:05:58;101493.44;;;7.91;100.00
72116;BME280;59991;52.140;5.428;2023-04-07T01:06:33;101503.50;;;7.91;100.00
72116;BME280;59991;52.140;5.428;2023-04-07T01:07:14;101496.16;;;7.91;100.00
72116;BME280;59991;52.140;5.428;2023-04-07T01:08:23;101498.06;;;7.91;100.00
72116;BME280;59991;52.140;5.428;2023-04-07T01:09:02;101501.91;;;7.90;100.00
72116;BME280;59991;52.140;5.428;2023-04-07T01:09:45;101490.63;;;7.88;100.00
72116;BME280;59991;52.140;5.428;2023-04-07T01:10:26;101492.97;;;7.89;100.00
72116;BME280;59991;52.140;5.428;2023-04-07T01:11:03;101496.06;;;7.88;100.00
72116;BME280;59991;52.140;5.428;2023-04-07T01:12:56;101490.63;;;7.88;100.00
72116;BME280;59991;52.140;5.428;2023-04-07T01:13:53;101494.16;;;7.88;100.00
72116;BME280;59991;52.140;5.428;2023-04-07T01:14:26;101496.88;;;7.88;100.00
72116;BME280;59991;52.140;5.428;2023-04-07T01:15:06;101493.69;;;7.86;100.00
72116;BME280;59991;52.140;5.428;2023-04-07T01:15:39;101491.78;;;7.87;100.00
72116;BME280;59991;52.140;5.428;2023-04-07T01:16:15;101492.09;;;7.85;100.00
72116;BME280;59991;52.140;5.428;2023-04-07T01:16:51;101494.47;;;7.87;100.00
72116;BME280;59991;52.140;5.428;2023-04-07T01:17:26;101492.09;;;7.85;100.00
72116;BME280;59991;52.140;5.428;2023-04-07T01:18:05;101500.25;;;7.85;100.00
72116;BME280;59991;52.140;5.428;2023-04-07T01:18:39;101495.63;;;7.86;100.00
72116;BME280;59991;52.140;5.428;2023-04-07T01:19:34;101495.63;;;7.86;100.00
72116;BME280;59991;52.140;5.428;2023-04-07T01:20:10;101501.84;;;7.86;100.00
72116;BME280;59991;52.140;5.428;2023-04-07T01:20:44;101491.31;;;7.85;100.00
72116;BME280;59991;52.140;5.428;2023-04-07T01:21:17;101499.47;;;7.85;100.00
72116;BME280;59991;52.140;5.428;2023-04-07T01:21:51;101494.03;;;7.85;100.00
72116;BME280;59991;52.140;5.428;2023-04-07T01:22:28;101495.16;;;7.84;100.00
72116;BME280;59991;52.140;5.428;2023-04-07T01:23:05;101491.31;;;7.85;100.00
72116;BME280;59991;52.140;5.428;2023-04-07T01:24:00;101494.81;;;7.85;100.00
72116;BME280;59991;52.140;5.428;2023-04-07T01:26:40;101496.75;;;7.85;100.00
72116;BME280;59991;52.140;5.428;2023-04-07T01:26:48;101492.09;;;7.85;100.00
72116;BME280;59991;52.140;5.428;2023-04-07T01:29:41;101504.91;;;7.85;100.00
72116;BME280;59991;52.140;5.428;2023-04-07T01:30:18;101492.44;;;7.84;100.00
72116;BME280;59991;52.140;5.428;2023-04-07T01:30:51;101494.38;;;7.83;100.00
72116;BME280;59991;52.140;5.428;2023-04-07T01:31:27;101497.88;;;7.84;100.00
72116;BME280;59991;52.140;5.428;2023-04-07T01:32:01;101499.81;;;7.83;100.00
72116;BME280;59991;52.140;5.428;2023-04-07T01:32:35;101492.44;;;7.84;100.00
72116;BME280;59991;52.140;5.428;2023-04-07T01:33:09;101495.50;;;7.82;100.00
72116;BME280;59991;52.140;5.428;2023-04-07T01:33:44;101498.66;;;7.84;100.00
72116;BME280;59991;52.140;5.428;2023-04-07T01:34:17;101497.88;;;7.84;100.00
72116;BME280;59991;52.140;5.428;2023-04-07T01:34:50;101494.38;;;7.83;100.00
72116;BME280;59991;52.140;5.428;2023-04-07T01:35:22;101493.59;;;7.83;100.00
72116;BME280;59991;52.140;5.428;2023-04-07T01:35:55;101494.38;;;7.83;100.00
72116;BME280;59991;52.140;5.428;2023-04-07T01:36:30;101498.66;;;7.84;100.00
72116;BME280;59991;52.140;5.428;2023-04-07T01:37:03;101502.19;;;7.85;100.00
72116;BME280;59991;52.140;5.428;2023-04-07T01:37:37;101500.25;;;7.85;100.00
72116;BME280;59991;52.140;5.428;2023-04-07T01:38:10;101496.75;;;7.85;100.00
72116;BME280;59991;52.140;5.428;2023-04-07T01:38:43;101498.34;;;7.86;100.00
72116;BME280;59991;52.140;5.428;2023-04-07T01:39:16;101500.25;;;7.85;100.00
72116;BME280;59991;52.140;5.428;2023-04-07T01:39:48;101498.34;;;7.86;100.00
72116;BME280;59991;52.140;5.428;2023-04-07T01:40:20;101499.91;;;7.87;100.00
72116;BME280;59991;52.140;5.428;2023-04-07T01:40:53;101499.91;;;7.87;100.00
72116;BME280;59991;52.140;5.428;2023-04-07T01:41:27;101495.63;;;7.86;100.00
72116;BME280;59991;52.140;5.428;2023-04-07T01:42:00;101491.78;;;7.87;100.00
72116;BME280;59991;52.140;5.428;2023-04-07T01:42:34;101492.09;;;7.85;100.00
72116;BME280;59991;52.140;5.428;2023-04-07T01:43:07;101494.81;;;7.85;100.00
72116;BME280;59991;52.140;5.428;2023-04-07T01:43:39;101492.91;;;7.86;100.00
72116;BME280;59991;52.140;5.428;2023-04-07T01:44:12;101496.75;;;7.85;100.00
72116;BME280;59991;52.140;5.428;2023-04-07T01:44:47;101503.75;;;7.86;100.00
72116;BME280;59991;52.140;5.428;2023-04-07T01:45:19;101499.13;;;7.86;100.00
72116;BME280;59991;52.140;5.428;2023-04-07T01:45:51;101499.13;;;7.86;100.00
72116;BME280;59991;52.140;5.428;2023-04-07T01:46:24;101497.53;;;7.85;100.00
72116;BME280;59991;52.140;5.428;2023-04-07T01:46:56;101492.09;;;7.85;100.00
72116;BME280;59991;52.140;5.428;2023-04-07T01:47:28;101493.69;;;7.86;100.00
72116;BME280;59991;52.140;5.428;2023-04-07T01:48:05;101496.75;;;7.85;100.00
72116;BME280;59991;52.140;5.428;2023-04-07T01:48:38;101502.97;;;7.85;100.00
72116;BME280;59991;52.140;5.428;2023-04-07T01:49:11;101494.03;;;7.85;100.00
72116;BME280;59991;52.140;5.428;2023-04-07T01:49:44;101499.47;;;7.85;100.00
72116;BME280;59991;52.140;5.428;2023-04-07T01:50:17;101499.47;;;7.85;100.00
72116;BME280;59991;52.140;5.428;2023-04-07T01:50:49;101494.47;;;7.87;100.00
72116;BME280;59991;52.140;5.428;2023-04-07T01:51:21;101497.19;;;7.87;100.00
72116;BME280;59991;52.140;5.428;2023-04-07T01:51:54;101494.81;;;7.85;100.00
72116;BME280;59991;52.140;5.428;2023-04-07T01:52:28;101501.03;;;7.86;100.00
72116;BME280;59991;52.140;5.428;2023-04-07T01:53:00;101501.03;;;7.86;100.00
72116;BME280;59991;52.140;5.428;2023-04-07T01:53:33;101492.91;;;7.86;100.00
72116;BME280;59991;52.140;5.428;2023-04-07T01:54:08;101500.25;;;7.85;100.00
72116;BME280;59991;52.140;5.428;2023-04-07T01:54:40;101495.97;;;7.84;100.00
72116;BME280;59991;52.140;5.428;2023-04-07T01:55:11;101495.16;;;7.84;100.00
72116;BME280;59991;52.140;5.428;2023-04-07T01:55:43;101495.97;;;7.84;100.00
72116;BME280;59991;52.140;5.428;2023-04-07T01:56:15;101489.72;;;7.84;100.00
72116;BME280;59991;52.140;5.428;2023-04-07T01:56:47;101494.38;;;7.83;100.00
72116;BME280;59991;52.140;5.428;2023-04-07T01:57:18;101498.66;;;7.84;100.00
72116;BME280;59991;52.140;5.428;2023-04-07T01:57:54;101490.88;;;7.83;100.00
72116;BME280;59991;52.140;5.428;2023-04-07T01:58:25;101496.28;;;7.83;100.00
72116;BME280;59991;52.140;5.428;2023-04-07T01:58:57;101497.09;;;7.83;100.00
72116;BME280;59991;52.140;5.428;2023-04-07T01:59:29;101494.72;;;7.82;100.00
72116;BME280;59991;52.140;5.428;2023-04-07T02:00:01;101493.91;;;7.81;100.00
72116;BME280;59991;52.140;5.428;2023-04-07T02:00:32;101497.44;;;7.82;100.00
72116;BME280;59991;52.140;5.428;2023-04-07T02:01:04;101494.25;;;7.80;100.00
72116;BME280;59991;52.140;5.428;2023-04-07T02:01:36;101497.44;;;7.82;100.00
72116;BME280;59991;52.140;5.428;2023-04-07T02:02:08;101494.72;;;7.82;100.00
72116;BME280;59991;52.140;5.428;2023-04-07T02:02:41;101496.63;;;7.81;100.00
72116;BME280;59991;52.140;5.428;2023-04-07T02:03:19;101494.25;;;7.80;100.00
72116;BME280;59991;52.140;5.428;2023-04-07T02:04:54;101495.84;;;7.81;100.00
72116;BME280;59991;52.140;5.428;2023-04-07T02:05:31;101489.63;;;7.80;100.00
72116;BME280;59991;52.140;5.428;2023-04-07T02:06:06;101493.47;;;7.79;100.00
72116;BME280;59991;52.140;5.428;2023-04-07T02:06:43;101492.34;;;7.80;100.00
72116;BME280;59991;52.140;5.428;2023-04-07T02:07:25;101489.97;;;7.79;100.00
72116;BME280;59991;52.140;5.428;2023-04-07T02:08:01;101493.13;;;7.81;100.00
72116;BME280;59991;52.140;5.428;2023-04-07T02:08:35;101490.41;;;7.81;100.00
72116;BME280;59991;52.140;5.428;2023-04-07T02:09:10;101493.13;;;7.81;100.00
72116;BME280;59991;52.140;5.428;2023-04-07T02:09:43;101496.63;;;7.81;100.00
72116;BME280;59991;52.140;5.428;2023-04-07T02:10:20;101499.34;;;7.81;100.00
72116;BME280;59991;52.140;5.428;2023-04-07T02:10:54;101495.50;;;7.82;100.00
72116;BME280;59991;52.140;5.428;2023-04-07T02:11:28;101496.28;;;7.83;100.00
72116;BME280;59991;52.140;5.428;2023-04-07T02:12:01;101493.13;;;7.81;100.00
72116;BME280;59991;52.140;5.428;2023-04-07T02:12:36;101499.00;;;7.83;100.00
72116;BME280;59991;52.140;5.428;2023-04-07T02:13:09;101487.34;;;7.82;100.00
72116;BME280;59991;52.140;5.428;2023-04-07T02:13:44;101496.28;;;7.83;100.00
72116;BME280;59991;52.140;5.428;2023-04-07T02:14:16;101491.66;;;7.83;100.00
72116;BME280;59991;52.140;5.428;2023-04-07T02:14:50;101496.28;;;7.83;100.00
72116;BME280;59991;52.140;5.428;2023-04-07T02:15:22;101497.09;;;7.83;100.00
72116;BME280;59991;52.140;5.428;2023-04-07T02:15:55;101491.66;;;7.83;100.00
72116;BME280;59991;52.140;5.428;2023-04-07T02:16:30;101494.03;;;7.85;100.00
72116;BME280;59991;52.140;5.428;2023-04-07T02:17:03;101491.31;;;7.85;100.00
72116;BME280;59991;52.140;5.428;2023-04-07T02:17:37;101493.25;;;7.84;100.00
72116;BME280;59991;52.140;5.428;2023-04-07T02:18:09;101499.13;;;7.86;100.00
72116;BME280;59991;52.140;5.428;2023-04-07T02:18:44;101496.75;;;7.85;100.00
72116;BME280;59991;52.140;5.428;2023-04-07T02:19:17;101497.19;;;7.87;100.00
72116;BME280;59991;52.140;5.428;2023-04-07T02:19:49;101492.56;;;7.87;100.00
72116;BME280;59991;52.140;5.428;2023-04-07T02:20:22;101496.88;;;7.88;100.00
72116;BME280;59991;52.140;5.428;2023-04-07T02:20:54;101500.72;;;7.87;100.00
72116;BME280;59991;52.140;5.428;2023-04-07T02:21:27;101494.47;;;7.87;100.00
72116;BME280;59991;52.140;5.428;2023-04-07T02:22:04;101492.56;;;7.87;100.00
72116;BME280;59991;52.140;5.428;2023-04-07T02:22:37;101490.63;;;7.88;100.00
72116;BME280;59991;52.140;5.428;2023-04-07T02:23:09;101495.28;;;7.87;100.00
72116;BME280;59991;52.140;5.428;2023-04-07T02:23:41;101495.28;;;7.87;100.00
72116;BME280;59991;52.140;5.428;2023-04-07T02:24:12;101498.00;;;7.87;100.00
72116;BME280;59991;52.140;5.428;2023-04-07T02:24:44;101496.06;;;7.88;100.00
72116;BME280;59991;52.140;5.428;2023-04-07T02:25:23;101497.63;;;7.89;100.00
72116;BME280;59991;52.140;5.428;2023-04-07T02:25:56;101493.34;;;7.88;100.00
72116;BME280;59991;52.140;5.428;2023-04-07T02:26:32;101504.22;;;7.88;100.00
72116;BME280;59991;52.140;5.428;2023-04-07T02:27:05;101503.41;;;7.87;100.00
72116;BME280;59991;52.140;5.428;2023-04-07T02:27:37;101496.06;;;7.88;100.00
72116;BME280;59991;52.140;5.428;2023-04-07T02:28:08;101498.78;;;7.88;100.00
72116;BME280;59991;52.140;5.428;2023-04-07T02:28:39;101502.63;;;7.87;100.00
72116;BME280;59991;52.140;5.428;2023-04-07T02:29:11;101504.22;;;7.88;100.00
72116;BME280;59991;52.140;5.428;2023-04-07T02:29:42;101500.72;;;7.87;100.00
72116;BME280;59991;52.140;5.428;2023-04-07T02:30:14;101506.47;;;7.86;100.00
72116;BME280;59991;52.140;5.428;2023-04-07T02:30:46;101503.75;;;7.86;100.00
72116;BME280;59991;52.140;5.428;2023-04-07T02:31:17;101506.47;;;7.86;100.00
72116;BME280;59991;52.140;5.428;2023-04-07T02:31:48;101503.75;;;7.86;100.00
72116;BME280;59991;52.140;5.428;2023-04-07T02:32:20;101499.47;;;7.85;100.00
72116;BME280;59991;52.140;5.428;2023-04-07T02:32:51;101507.59;;;7.85;100.00
72116;BME280;59991;52.140;5.428;2023-04-07T02:33:23;101501.38;;;7.84;100.00
72116;BME280;59991;52.140;5.428;2023-04-07T02:33:55;101506.03;;;7.84;100.00
72116;BME280;59991;52.140;5.428;2023-04-07T02:34:26;101509.53;;;7.84;100.00
72116;BME280;59991;52.140;5.428;2023-04-07T02:34:58;101511.13;;;7.85;100.00
72116;BME280;59991;52.140;5.428;2023-04-07T02:35:29;101508.06;;;7.87;100.00
72116;BME280;59991;52.140;5.428;2023-04-07T02:36:01;101502.97;;;7.85;100.00
72116;BME280;59991;52.140;5.428;2023-04-07T02:36:32;101502.97;;;7.85;100.00
72116;BME280;59991;52.140;5.428;2023-04-07T02:37:03;101497.88;;;7.84;100.00
72116;BME280;59991;52.140;5.428;2023-04-07T02:37:35;101500.59;;;7.84;100.00
72116;BME280;59991;52.140;5.428;2023-04-07T02:38:06;101501.38;;;7.84;100.00
72116;BME280;59991;52.140;5.428;2023-04-07T02:38:38;101497.09;;;7.83;100.00
72116;BME280;59991;52.140;5.428;2023-04-07T02:39:09;101496.28;;;7.83;100.00
72116;BME280;59991;52.140;5.428;2023-04-07T02:39:41;101499.34;;;7.81;100.00
72116;BME280;59991;52.140;5.428;2023-04-07T02:40:12;101495.50;;;7.82;100.00
72116;BME280;59991;52.140;5.428;2023-04-07T02:40:44;101505.22;;;7.83;100.00
72116;BME280;59991;52.140;5.428;2023-04-07T02:41:15;101497.09;;;7.83;100.00
72116;BME280;59991;52.140;5.428;2023-04-07T02:41:47;101500.94;;;7.82;100.00
72116;BME280;59991;52.140;5.428;2023-04-07T02:42:18;101500.16;;;7.82;100.00
72116;BME280;59991;52.140;5.428;2023-04-07T02:42:49;101503.19;;;7.80;100.00
72116;BME280;59991;52.140;5.428;2023-04-07T02:43:22;101498.56;;;7.81;100.00
72116;BME280;59991;52.140;5.428;2023-04-07T02:43:53;101499.34;;;7.81;100.00
72116;BME280;59991;52.140;5.428;2023-04-07T02:44:25;101497.44;;;7.82;100.00
72116;BME280;59991;52.140;5.428;2023-04-07T02:44:57;101498.56;;;7.81;100.00
72116;BME280;59991;52.140;5.428;2023-04-07T02:45:28;101493.91;;;7.81;100.00
72116;BME280;59991;52.140;5.428;2023-04-07T02:45:59;101500.94;;;7.82;100.00
72116;BME280;59991;52.140;5.428;2023-04-07T02:46:31;101498.56;;;7.81;100.00
72116;BME280;59991;52.140;5.428;2023-04-07T02:47:02;101497.44;;;7.82;100.00
72116;BME280;59991;52.140;5.428;2023-04-07T02:47:35;101495.84;;;7.81;100.00
72116;BME280;59991;52.140;5.428;2023-04-07T02:48:06;101496.97;;;7.80;100.00
72116;BME280;59991;52.140;5.428;2023-04-07T02:48:38;101495.84;;;7.81;100.00
72116;BME280;59991;52.140;5.428;2023-04-07T02:49:09;101498.56;;;7.81;100.00
72116;BME280;59991;52.140;5.428;2023-04-07T02:49:41;101495.84;;;7.81;100.00
72116;BME280;59991;52.140;5.428;2023-04-07T02:50:12;101505.91;;;7.80;100.00
72116;BME280;59991;52.140;5.428;2023-04-07T02:50:43;101505.56;;;7.82;100.00
72116;BME280;59991;52.140;5.428;2023-04-07T02:51:15;101499.34;;;7.81;100.00
72116;BME280;59991;52.140;5.428;2023-04-07T02:51:46;101506.69;;;7.81;100.00
72116;BME280;59991;52.140;5.428;2023-04-07T02:52:18;101505.56;;;7.82;100.00
72116;BME280;59991;52.140;5.428;2023-04-07T02:52:49;101505.56;;;7.82;100.00
72116;BME280;59991;52.140;5.428;2023-04-07T02:53:20;101501.28;;;7.81;100.00
72116;BME280;59991;52.140;5.428;2023-04-07T02:53:52;101505.56;;;7.82;100.00
72116;BME280;59991;52.140;5.428;2023-04-07T02:54:24;101498.56;;;7.81;100.00
72116;BME280;59991;52.140;5.428;2023-04-07T02:54:55;101505.91;;;7.80;100.00
72116;BME280;59991;52.140;5.428;2023-04-07T02:55:27;101507.84;;;7.80;100.00
72116;BME280;59991;52.140;5.428;2023-04-07T02:55:58;101500.81;;;7.79;100.00
72116;BME280;59991;52.140;5.428;2023-04-07T02:56:29;101502.41;;;7.80;100.00
72116;BME280;59991;52.140;5.428;2023-04-07T02:57:01;101504.00;;;7.81;100.00
72116;BME280;59991;52.140;5.428;2023-04-07T02:57:33;101504.00;;;7.81;100.00
72116;BME280;59991;52.140;5.428;2023-04-07T02:58:04;101497.78;;;7.80;100.00
72116;BME280;59991;52.140;5.428;2023-04-07T02:58:35;101503.19;;;7.80;100.00
72116;BME280;59991;52.140;5.428;2023-04-07T02:59:07;101506.69;;;7.81;100.00
72116;BME280;59991;52.140;5.428;2023-04-07T02:59:39;101500.16;;;7.82;100.00
72116;BME280;59991;52.140;5.428;2023-04-07T03:00:11;101502.06;;;7.81;100.00
72116;BME280;59991;52.140;5.428;2023-04-07T03:00:43;101503.66;;;7.82;100.00
72116;BME280;59991;52.140;5.428;2023-04-07T03:01:15;101499.34;;;7.81;100.00